sensor_id;sensor_type;location;lat;lon;timestamp;P1;durP1;ratioP1;P2;durP2;ratioP2
17620;SDS011;8929;51.008;6.804;2022-07-04T00:01:13;3.70;;;2.30;;
17620;SDS011;8929;51.008;6.804;2022-07-04T00:03:39;2.80;;;1.53;;
17620;SDS011;8929;51.008;6.804;2022-07-04T00:06:05;4.20;;;1.90;;
17620;SDS011;8929;51.008;6.804;2022-07-04T00:08:31;4.30;;;1.37;;
17620;SDS011;8929;51.008;6.804;2022-07-04T00:10:57;4.37;;;1.97;;
17620;SDS011;8929;51.008;6.804;2022-07-04T00:13:22;3.37;;;2.10;;
17620;SDS011;8929;51.008;6.804;2022-07-04T00:15:48;2.73;;;2.13;;
17620;SDS011;8929;51.008;6.804;2022-07-04T00:18:14;4.10;;;1.53;;
17620;SDS011;8929;51.008;6.804;2022-07-04T00:20:40;2.57;;;1.67;;
17620;SDS011;8929;51.008;6.804;2022-07-04T00:23:06;3.77;;;1.93;;
17620;SDS011;8929;51.008;6.804;2022-07-04T00:25:32;2.70;;;1.60;;
17620;SDS011;8929;51.008;6.804;2022-07-04T00:27:58;2.67;;;1.40;;
17620;SDS011;8929;51.008;6.804;2022-07-04T00:30:23;4.80;;;2.00;;
17620;SDS011;8929;51.008;6.804;2022-07-04T00:32:49;2.90;;;1.90;;
17620;SDS011;8929;51.008;6.804;2022-07-04T00:35:15;3.70;;;1.87;;
17620;SDS011;8929;51.008;6.804;2022-07-04T00:37:41;3.90;;;1.63;;
17620;SDS011;8929;51.008;6.804;2022-07-04T00:40:07;3.20;;;1.80;;
17620;SDS011;8929;51.008;6.804;2022-07-04T00:42:33;3.63;;;1.87;;
17620;SDS011;8929;51.008;6.804;2022-07-04T00:44:58;3.60;;;1.80;;
17620;SDS011;8929;51.008;6.804;2022-07-04T00:47:24;3.07;;;1.17;;
17620;SDS011;8929;51.008;6.804;2022-07-04T00:49:50;2.63;;;1.70;;
17620;SDS011;8929;51.008;6.804;2022-07-04T00:52:19;3.00;;;1.90;;
17620;SDS011;8929;51.008;6.804;2022-07-04T00:54:45;3.37;;;1.70;;
17620;SDS011;8929;51.008;6.804;2022-07-04T00:57:11;2.87;;;1.57;;
17620;SDS011;8929;51.008;6.804;2022-07-04T00:59:37;4.53;;;1.90;;
17620;SDS011;8929;51.008;6.804;2022-07-04T01:02:03;3.00;;;2.20;;
17620;SDS011;8929;51.008;6.804;2022-07-04T01:04:29;3.13;;;1.83;;
17620;SDS011;8929;51.008;6.804;2022-07-04T01:06:55;4.60;;;1.67;;
17620;SDS011;8929;51.008;6.804;2022-07-04T01:09:20;3.03;;;2.00;;
17620;SDS011;8929;51.008;6.804;2022-07-04T01:11:48;5.30;;;2.07;;
17620;SDS011;8929;51.008;6.804;2022-07-04T01:14:15;2.93;;;1.63;;
17620;SDS011;8929;51.008;6.804;2022-07-04T01:16:41;3.37;;;1.80;;
17620;SDS011;8929;51.008;6.804;2022-07-04T01:19:06;6.80;;;1.83;;
17620;SDS011;8929;51.008;6.804;2022-07-04T01:21:32;2.97;;;1.87;;
17620;SDS011;8929;51.008;6.804;2022-07-04T01:23:58;2.60;;;1.30;;
17620;SDS011;8929;51.008;6.804;2022-07-04T01:26:24;2.73;;;1.50;;
17620;SDS011;8929;51.008;6.804;2022-07-04T01:28:50;5.20;;;1.70;;
17620;SDS011;8929;51.008;6.804;2022-07-04T01:31:15;4.00;;;1.97;;
17620;SDS011;8929;51.008;6.804;2022-07-04T01:33:41;3.07;;;1.23;;
17620;SDS011;8929;51.008;6.804;2022-07-04T01:36:06;3.17;;;2.00;;
17620;SDS011;8929;51.008;6.804;2022-07-04T01:38:32;3.57;;;1.80;;
17620;SDS011;8929;51.008;6.804;2022-07-04T01:40:57;3.57;;;2.20;;
17620;SDS011;8929;51.008;6.804;2022-07-04T01:43:23;4.50;;;1.80;;
17620;SDS011;8929;51.008;6.804;2022-07-04T01:45:49;4.70;;;1.60;;
17620;SDS011;8929;51.008;6.804;2022-07-04T01:48:15;2.47;;;1.57;;
17620;SDS011;8929;51.008;6.804;2022-07-04T01:50:41;2.77;;;1.80;;
17620;SDS011;8929;51.008;6.804;2022-07-04T01:53:06;5.07;;;1.50;;
17620;SDS011;8929;51.008;6.804;2022-07-04T01:55:32;2.97;;;1.57;;
17620;SDS011;8929;51.008;6.804;2022-07-04T01:57:58;4.50;;;1.60;;
17620;SDS011;8929;51.008;6.804;2022-07-04T02:00:25;2.70;;;1.40;;
17620;SDS011;8929;51.008;6.804;2022-07-04T02:03:09;3.10;;;1.57;;
17620;SDS011;8929;51.008;6.804;2022-07-04T02:05:35;2.73;;;1.77;;
17620;SDS011;8929;51.008;6.804;2022-07-04T02:08:02;3.33;;;1.47;;
17620;SDS011;8929;51.008;6.804;2022-07-04T02:10:28;2.87;;;1.50;;
17620;SDS011;8929;51.008;6.804;2022-07-04T02:12:54;2.97;;;1.67;;
17620;SDS011;8929;51.008;6.804;2022-07-04T02:18:00;2.83;;;1.87;;
17620;SDS011;8929;51.008;6.804;2022-07-04T02:20:27;3.47;;;1.60;;
17620;SDS011;8929;51.008;6.804;2022-07-04T02:22:53;4.47;;;2.10;;
17620;SDS011;8929;51.008;6.804;2022-07-04T02:25:18;3.27;;;1.53;;
17620;SDS011;8929;51.008;6.804;2022-07-04T02:27:44;3.03;;;1.60;;
17620;SDS011;8929;51.008;6.804;2022-07-04T02:30:10;5.40;;;1.80;;
17620;SDS011;8929;51.008;6.804;2022-07-04T02:32:37;2.80;;;1.60;;
17620;SDS011;8929;51.008;6.804;2022-07-04T02:35:04;2.70;;;1.57;;
17620;SDS011;8929;51.008;6.804;2022-07-04T02:37:30;3.20;;;1.80;;
17620;SDS011;8929;51.008;6.804;2022-07-04T02:39:56;4.40;;;1.80;;
17620;SDS011;8929;51.008;6.804;2022-07-04T02:42:21;2.73;;;1.83;;
17620;SDS011;8929;51.008;6.804;2022-07-04T02:44:47;3.60;;;2.00;;
17620;SDS011;8929;51.008;6.804;2022-07-04T02:47:13;3.30;;;1.70;;
17620;SDS011;8929;51.008;6.804;2022-07-04T02:49:39;7.50;;;1.77;;
17620;SDS011;8929;51.008;6.804;2022-07-04T02:52:05;4.17;;;1.80;;
17620;SDS011;8929;51.008;6.804;2022-07-04T02:54:30;2.97;;;1.73;;
17620;SDS011;8929;51.008;6.804;2022-07-04T02:56:56;5.03;;;2.10;;
17620;SDS011;8929;51.008;6.804;2022-07-04T02:59:21;2.80;;;2.00;;
17620;SDS011;8929;51.008;6.804;2022-07-04T03:01:47;4.63;;;1.67;;
17620;SDS011;8929;51.008;6.804;2022-07-04T03:04:12;3.53;;;1.73;;
17620;SDS011;8929;51.008;6.804;2022-07-04T03:06:38;6.40;;;2.10;;
17620;SDS011;8929;51.008;6.804;2022-07-04T03:09:05;4.00;;;1.70;;
17620;SDS011;8929;51.008;6.804;2022-07-04T03:11:31;3.70;;;2.00;;
17620;SDS011;8929;51.008;6.804;2022-07-04T03:13:56;3.63;;;1.83;;
17620;SDS011;8929;51.008;6.804;2022-07-04T03:16:22;3.17;;;1.83;;
17620;SDS011;8929;51.008;6.804;2022-07-04T03:18:47;3.83;;;1.60;;
17620;SDS011;8929;51.008;6.804;2022-07-04T03:21:13;3.17;;;1.57;;
17620;SDS011;8929;51.008;6.804;2022-07-04T03:23:38;3.97;;;2.93;;
17620;SDS011;8929;51.008;6.804;2022-07-04T03:26:04;6.33;;;1.90;;
17620;SDS011;8929;51.008;6.804;2022-07-04T03:28:29;5.50;;;2.37;;
17620;SDS011;8929;51.008;6.804;2022-07-04T03:30:55;5.30;;;2.90;;
17620;SDS011;8929;51.008;6.804;2022-07-04T03:33:21;2.97;;;1.70;;
17620;SDS011;8929;51.008;6.804;2022-07-04T03:35:46;5.00;;;2.33;;
17620;SDS011;8929;51.008;6.804;2022-07-04T03:38:12;3.60;;;1.97;;
17620;SDS011;8929;51.008;6.804;2022-07-04T03:40:37;6.03;;;1.90;;
17620;SDS011;8929;51.008;6.804;2022-07-04T03:43:04;4.37;;;1.70;;
17620;SDS011;8929;51.008;6.804;2022-07-04T03:45:33;3.30;;;1.87;;
17620;SDS011;8929;51.008;6.804;2022-07-04T03:47:59;4.00;;;1.90;;
17620;SDS011;8929;51.008;6.804;2022-07-04T03:50:27;3.70;;;1.97;;
17620;SDS011;8929;51.008;6.804;2022-07-04T03:52:53;5.40;;;2.20;;
17620;SDS011;8929;51.008;6.804;2022-07-04T03:55:19;4.17;;;2.20;;
17620;SDS011;8929;51.008;6.804;2022-07-04T03:57:44;4.37;;;2.50;;
17620;SDS011;8929;51.008;6.804;2022-07-04T04:00:10;3.60;;;1.73;;
17620;SDS011;8929;51.008;6.804;2022-07-04T04:02:36;8.40;;;3.30;;
17620;SDS011;8929;51.008;6.804;2022-07-04T04:05:02;3.27;;;2.03;;
17620;SDS011;8929;51.008;6.804;2022-07-04T04:08:04;4.20;;;2.17;;
17620;SDS011;8929;51.008;6.804;2022-07-04T04:10:30;3.77;;;2.10;;
17620;SDS011;8929;51.008;6.804;2022-07-04T04:12:56;2.93;;;1.77;;
17620;SDS011;8929;51.008;6.804;2022-07-04T04:15:23;3.73;;;2.10;;
17620;SDS011;8929;51.008;6.804;2022-07-04T04:17:48;4.37;;;2.70;;
17620;SDS011;8929;51.008;6.804;2022-07-04T04:20:14;4.70;;;1.90;;
17620;SDS011;8929;51.008;6.804;2022-07-04T04:22:40;2.77;;;1.70;;
17620;SDS011;8929;51.008;6.804;2022-07-04T04:25:05;3.40;;;1.87;;
17620;SDS011;8929;51.008;6.804;2022-07-04T04:27:32;7.00;;;2.33;;
17620;SDS011;8929;51.008;6.804;2022-07-04T04:29:57;6.13;;;2.17;;
17620;SDS011;8929;51.008;6.804;2022-07-04T04:32:23;4.60;;;2.27;;
17620;SDS011;8929;51.008;6.804;2022-07-04T04:34:49;4.07;;;2.27;;
17620;SDS011;8929;51.008;6.804;2022-07-04T04:37:14;4.30;;;2.10;;
17620;SDS011;8929;51.008;6.804;2022-07-04T04:39:40;3.63;;;2.13;;
17620;SDS011;8929;51.008;6.804;2022-07-04T04:42:05;5.60;;;2.37;;
17620;SDS011;8929;51.008;6.804;2022-07-04T04:44:31;4.57;;;2.73;;
17620;SDS011;8929;51.008;6.804;2022-07-04T04:46:56;4.50;;;2.60;;
17620;SDS011;8929;51.008;6.804;2022-07-04T04:49:22;5.70;;;3.13;;
17620;SDS011;8929;51.008;6.804;2022-07-04T04:51:47;3.50;;;2.10;;
17620;SDS011;8929;51.008;6.804;2022-07-04T04:54:13;3.97;;;2.43;;
17620;SDS011;8929;51.008;6.804;2022-07-04T04:56:38;3.63;;;2.17;;
17620;SDS011;8929;51.008;6.804;2022-07-04T04:59:04;3.37;;;1.83;;
17620;SDS011;8929;51.008;6.804;2022-07-04T05:01:30;5.20;;;2.20;;
17620;SDS011;8929;51.008;6.804;2022-07-04T05:03:55;2.83;;;1.90;;
17620;SDS011;8929;51.008;6.804;2022-07-04T05:06:21;3.27;;;2.13;;
17620;SDS011;8929;51.008;6.804;2022-07-04T05:08:46;3.10;;;2.10;;
17620;SDS011;8929;51.008;6.804;2022-07-04T05:11:13;5.90;;;2.37;;
17620;SDS011;8929;51.008;6.804;2022-07-04T05:13:38;5.00;;;2.40;;
17620;SDS011;8929;51.008;6.804;2022-07-04T05:16:04;3.90;;;2.50;;
17620;SDS011;8929;51.008;6.804;2022-07-04T05:18:30;4.47;;;2.60;;
17620;SDS011;8929;51.008;6.804;2022-07-04T05:20:55;4.77;;;2.90;;
17620;SDS011;8929;51.008;6.804;2022-07-04T05:23:21;6.13;;;2.73;;
17620;SDS011;8929;51.008;6.804;2022-07-04T05:25:49;3.03;;;2.10;;
17620;SDS011;8929;51.008;6.804;2022-07-04T05:28:15;5.67;;;2.13;;
17620;SDS011;8929;51.008;6.804;2022-07-04T05:30:40;3.77;;;2.07;;
17620;SDS011;8929;51.008;6.804;2022-07-04T05:33:07;4.23;;;1.93;;
17620;SDS011;8929;51.008;6.804;2022-07-04T05:35:33;3.83;;;2.40;;
17620;SDS011;8929;51.008;6.804;2022-07-04T05:37:58;5.37;;;2.33;;
17620;SDS011;8929;51.008;6.804;2022-07-04T05:40:24;3.60;;;2.03;;
17620;SDS011;8929;51.008;6.804;2022-07-04T05:42:49;4.60;;;2.40;;
17620;SDS011;8929;51.008;6.804;2022-07-04T05:45:15;4.40;;;2.20;;
17620;SDS011;8929;51.008;6.804;2022-07-04T05:47:40;4.07;;;2.67;;
17620;SDS011;8929;51.008;6.804;2022-07-04T05:50:06;4.10;;;2.00;;
17620;SDS011;8929;51.008;6.804;2022-07-04T05:52:32;5.90;;;2.40;;
17620;SDS011;8929;51.008;6.804;2022-07-04T05:54:58;4.00;;;2.13;;
17620;SDS011;8929;51.008;6.804;2022-07-04T05:57:23;3.83;;;1.67;;
17620;SDS011;8929;51.008;6.804;2022-07-04T05:59:49;3.40;;;2.10;;
17620;SDS011;8929;51.008;6.804;2022-07-04T06:02:15;4.20;;;2.40;;
17620;SDS011;8929;51.008;6.804;2022-07-04T06:04:40;3.53;;;1.57;;
17620;SDS011;8929;51.008;6.804;2022-07-04T06:07:08;3.50;;;1.80;;
17620;SDS011;8929;51.008;6.804;2022-07-04T06:09:34;3.30;;;2.13;;
17620;SDS011;8929;51.008;6.804;2022-07-04T06:11:59;3.30;;;2.07;;
17620;SDS011;8929;51.008;6.804;2022-07-04T06:14:25;4.00;;;2.27;;
17620;SDS011;8929;51.008;6.804;2022-07-04T06:16:50;3.47;;;2.20;;
17620;SDS011;8929;51.008;6.804;2022-07-04T06:19:16;3.33;;;1.83;;
17620;SDS011;8929;51.008;6.804;2022-07-04T06:21:42;3.37;;;2.20;;
17620;SDS011;8929;51.008;6.804;2022-07-04T06:24:07;3.67;;;1.83;;
17620;SDS011;8929;51.008;6.804;2022-07-04T06:26:33;6.83;;;2.00;;
17620;SDS011;8929;51.008;6.804;2022-07-04T06:28:58;2.93;;;1.90;;
17620;SDS011;8929;51.008;6.804;2022-07-04T06:31:24;2.87;;;1.67;;
17620;SDS011;8929;51.008;6.804;2022-07-04T06:33:49;4.77;;;1.87;;
17620;SDS011;8929;51.008;6.804;2022-07-04T06:36:34;3.57;;;2.10;;
17620;SDS011;8929;51.008;6.804;2022-07-04T06:38:59;4.10;;;1.63;;
17620;SDS011;8929;51.008;6.804;2022-07-04T06:41:25;2.80;;;1.33;;
17620;SDS011;8929;51.008;6.804;2022-07-04T06:43:51;4.20;;;1.90;;
17620;SDS011;8929;51.008;6.804;2022-07-04T06:46:16;4.77;;;1.77;;
17620;SDS011;8929;51.008;6.804;2022-07-04T06:48:42;2.43;;;1.50;;
17620;SDS011;8929;51.008;6.804;2022-07-04T06:51:08;3.30;;;1.43;;
17620;SDS011;8929;51.008;6.804;2022-07-04T06:53:33;3.57;;;1.57;;
17620;SDS011;8929;51.008;6.804;2022-07-04T06:55:59;2.67;;;1.30;;
17620;SDS011;8929;51.008;6.804;2022-07-04T06:58:25;2.83;;;1.40;;
17620;SDS011;8929;51.008;6.804;2022-07-04T07:00:50;4.83;;;1.57;;
17620;SDS011;8929;51.008;6.804;2022-07-04T07:03:16;2.83;;;1.53;;
17620;SDS011;8929;51.008;6.804;2022-07-04T07:05:41;2.87;;;1.30;;
17620;SDS011;8929;51.008;6.804;2022-07-04T07:08:07;3.17;;;1.50;;
17620;SDS011;8929;51.008;6.804;2022-07-04T07:10:33;3.77;;;2.20;;
17620;SDS011;8929;51.008;6.804;2022-07-04T07:13:00;3.73;;;1.43;;
17620;SDS011;8929;51.008;6.804;2022-07-04T07:15:27;4.73;;;1.37;;
17620;SDS011;8929;51.008;6.804;2022-07-04T07:17:52;3.60;;;1.30;;
17620;SDS011;8929;51.008;6.804;2022-07-04T07:20:18;2.27;;;1.00;;
17620;SDS011;8929;51.008;6.804;2022-07-04T07:22:43;3.70;;;1.43;;
17620;SDS011;8929;51.008;6.804;2022-07-04T07:25:10;3.77;;;1.40;;
17620;SDS011;8929;51.008;6.804;2022-07-04T07:27:36;2.83;;;1.13;;
17620;SDS011;8929;51.008;6.804;2022-07-04T07:30:02;2.20;;;1.10;;
17620;SDS011;8929;51.008;6.804;2022-07-04T07:32:29;4.03;;;1.10;;
17620;SDS011;8929;51.008;6.804;2022-07-04T07:34:54;1.90;;;0.90;;
17620;SDS011;8929;51.008;6.804;2022-07-04T07:37:20;2.20;;;1.00;;
17620;SDS011;8929;51.008;6.804;2022-07-04T07:39:47;6.00;;;1.30;;
17620;SDS011;8929;51.008;6.804;2022-07-04T07:42:13;2.00;;;0.90;;
17620;SDS011;8929;51.008;6.804;2022-07-04T07:44:38;2.10;;;0.90;;
17620;SDS011;8929;51.008;6.804;2022-07-04T07:47:04;2.13;;;1.03;;
17620;SDS011;8929;51.008;6.804;2022-07-04T07:49:30;2.60;;;0.93;;
17620;SDS011;8929;51.008;6.804;2022-07-04T07:51:55;2.67;;;1.07;;
17620;SDS011;8929;51.008;6.804;2022-07-04T07:54:21;2.27;;;0.93;;
17620;SDS011;8929;51.008;6.804;2022-07-04T07:56:47;3.50;;;1.20;;
17620;SDS011;8929;51.008;6.804;2022-07-04T07:59:12;2.27;;;1.07;;
17620;SDS011;8929;51.008;6.804;2022-07-04T08:01:38;2.53;;;1.03;;
17620;SDS011;8929;51.008;6.804;2022-07-04T08:04:03;3.30;;;1.20;;
17620;SDS011;8929;51.008;6.804;2022-07-04T08:06:48;3.47;;;1.30;;
17620;SDS011;8929;51.008;6.804;2022-07-04T08:09:13;3.90;;;1.50;;
17620;SDS011;8929;51.008;6.804;2022-07-04T08:11:39;4.40;;;2.00;;
17620;SDS011;8929;51.008;6.804;2022-07-04T08:14:06;2.20;;;1.10;;
17620;SDS011;8929;51.008;6.804;2022-07-04T08:16:32;3.03;;;1.00;;
17620;SDS011;8929;51.008;6.804;2022-07-04T08:18:58;3.90;;;1.03;;
17620;SDS011;8929;51.008;6.804;2022-07-04T08:21:24;2.90;;;1.40;;
17620;SDS011;8929;51.008;6.804;2022-07-04T08:23:50;2.40;;;1.40;;
17620;SDS011;8929;51.008;6.804;2022-07-04T08:26:15;2.90;;;1.00;;
17620;SDS011;8929;51.008;6.804;2022-07-04T08:28:41;3.10;;;1.70;;
17620;SDS011;8929;51.008;6.804;2022-07-04T08:31:06;3.53;;;1.50;;
17620;SDS011;8929;51.008;6.804;2022-07-04T08:33:32;3.27;;;1.23;;
17620;SDS011;8929;51.008;6.804;2022-07-04T08:35:58;3.30;;;1.10;;
17620;SDS011;8929;51.008;6.804;2022-07-04T08:38:23;5.60;;;1.70;;
17620;SDS011;8929;51.008;6.804;2022-07-04T08:40:50;4.47;;;1.63;;
17620;SDS011;8929;51.008;6.804;2022-07-04T08:43:22;3.90;;;1.30;;
17620;SDS011;8929;51.008;6.804;2022-07-04T08:45:49;2.87;;;1.10;;
17620;SDS011;8929;51.008;6.804;2022-07-04T08:48:20;3.13;;;1.13;;
17620;SDS011;8929;51.008;6.804;2022-07-04T08:50:51;2.50;;;1.40;;
17620;SDS011;8929;51.008;6.804;2022-07-04T08:53:22;2.77;;;1.50;;
17620;SDS011;8929;51.008;6.804;2022-07-04T08:55:53;3.03;;;1.33;;
17620;SDS011;8929;51.008;6.804;2022-07-04T08:58:39;2.50;;;1.10;;
17620;SDS011;8929;51.008;6.804;2022-07-04T09:01:06;3.67;;;1.33;;
17620;SDS011;8929;51.008;6.804;2022-07-04T09:03:36;3.63;;;1.23;;
17620;SDS011;8929;51.008;6.804;2022-07-04T09:06:02;2.57;;;1.20;;
17620;SDS011;8929;51.008;6.804;2022-07-04T09:08:28;3.80;;;1.27;;
17620;SDS011;8929;51.008;6.804;2022-07-04T09:10:53;3.00;;;1.33;;
17620;SDS011;8929;51.008;6.804;2022-07-04T09:13:19;4.10;;;1.50;;
17620;SDS011;8929;51.008;6.804;2022-07-04T09:15:46;3.70;;;1.80;;
17620;SDS011;8929;51.008;6.804;2022-07-04T09:18:21;3.33;;;1.10;;
17620;SDS011;8929;51.008;6.804;2022-07-04T09:20:52;2.90;;;1.30;;
17620;SDS011;8929;51.008;6.804;2022-07-04T09:23:23;2.40;;;1.10;;
17620;SDS011;8929;51.008;6.804;2022-07-04T09:28:39;2.30;;;1.10;;
17620;SDS011;8929;51.008;6.804;2022-07-04T09:31:19;3.00;;;1.17;;
17620;SDS011;8929;51.008;6.804;2022-07-04T09:36:15;2.43;;;1.30;;
17620;SDS011;8929;51.008;6.804;2022-07-04T09:38:42;4.27;;;1.37;;
17620;SDS011;8929;51.008;6.804;2022-07-04T09:41:09;2.57;;;1.20;;
17620;SDS011;8929;51.008;6.804;2022-07-04T09:43:59;2.97;;;1.20;;
17620;SDS011;8929;51.008;6.804;2022-07-04T09:46:32;4.53;;;1.23;;
17620;SDS011;8929;51.008;6.804;2022-07-04T09:48:58;2.90;;;1.20;;
17620;SDS011;8929;51.008;6.804;2022-07-04T09:51:43;2.80;;;1.20;;
17620;SDS011;8929;51.008;6.804;2022-07-04T09:56:57;2.87;;;1.10;;
17620;SDS011;8929;51.008;6.804;2022-07-04T09:59:24;3.40;;;1.27;;
17620;SDS011;8929;51.008;6.804;2022-07-04T10:01:52;3.00;;;1.10;;
17620;SDS011;8929;51.008;6.804;2022-07-04T10:07:32;4.00;;;1.13;;
17620;SDS011;8929;51.008;6.804;2022-07-04T10:10:00;2.20;;;1.00;;
17620;SDS011;8929;51.008;6.804;2022-07-04T10:12:48;2.97;;;1.00;;
17620;SDS011;8929;51.008;6.804;2022-07-04T10:15:15;2.40;;;1.20;;
17620;SDS011;8929;51.008;6.804;2022-07-04T10:17:41;4.17;;;1.30;;
17620;SDS011;8929;51.008;6.804;2022-07-04T10:20:06;4.63;;;1.40;;
17620;SDS011;8929;51.008;6.804;2022-07-04T10:22:34;2.60;;;1.00;;
17620;SDS011;8929;51.008;6.804;2022-07-04T10:25:01;3.33;;;1.30;;
17620;SDS011;8929;51.008;6.804;2022-07-04T10:27:26;2.23;;;1.10;;
17620;SDS011;8929;51.008;6.804;2022-07-04T10:29:52;2.20;;;1.20;;
17620;SDS011;8929;51.008;6.804;2022-07-04T10:32:19;2.30;;;1.17;;
17620;SDS011;8929;51.008;6.804;2022-07-04T10:34:45;3.30;;;1.20;;
17620;SDS011;8929;51.008;6.804;2022-07-04T10:37:11;4.00;;;1.40;;
17620;SDS011;8929;51.008;6.804;2022-07-04T10:39:37;3.77;;;1.50;;
17620;SDS011;8929;51.008;6.804;2022-07-04T10:42:09;3.00;;;1.17;;
17620;SDS011;8929;51.008;6.804;2022-07-04T10:44:51;3.50;;;1.33;;
17620;SDS011;8929;51.008;6.804;2022-07-04T10:47:24;3.17;;;1.20;;
17620;SDS011;8929;51.008;6.804;2022-07-04T10:49:54;3.30;;;1.00;;
17620;SDS011;8929;51.008;6.804;2022-07-04T10:52:19;3.47;;;1.50;;
17620;SDS011;8929;51.008;6.804;2022-07-04T10:54:45;2.63;;;1.10;;
17620;SDS011;8929;51.008;6.804;2022-07-04T10:57:14;2.53;;;1.30;;
17620;SDS011;8929;51.008;6.804;2022-07-04T11:02:39;2.77;;;1.67;;
17620;SDS011;8929;51.008;6.804;2022-07-04T11:05:06;2.40;;;1.50;;
17620;SDS011;8929;51.008;6.804;2022-07-04T11:17:56;3.63;;;1.40;;
17620;SDS011;8929;51.008;6.804;2022-07-04T11:20:22;4.20;;;1.73;;
17620;SDS011;8929;51.008;6.804;2022-07-04T11:22:49;3.80;;;1.50;;
17620;SDS011;8929;51.008;6.804;2022-07-04T11:25:15;3.27;;;1.30;;
17620;SDS011;8929;51.008;6.804;2022-07-04T11:27:40;3.23;;;1.33;;
17620;SDS011;8929;51.008;6.804;2022-07-04T11:30:07;3.10;;;1.70;;
17620;SDS011;8929;51.008;6.804;2022-07-04T11:32:35;3.30;;;1.23;;
17620;SDS011;8929;51.008;6.804;2022-07-04T11:35:01;3.10;;;1.20;;
17620;SDS011;8929;51.008;6.804;2022-07-04T11:37:29;3.30;;;1.50;;
17620;SDS011;8929;51.008;6.804;2022-07-04T11:39:55;2.20;;;1.13;;
17620;SDS011;8929;51.008;6.804;2022-07-04T11:42:40;2.80;;;1.20;;
17620;SDS011;8929;51.008;6.804;2022-07-04T11:45:44;3.53;;;1.40;;
17620;SDS011;8929;51.008;6.804;2022-07-04T11:48:10;5.30;;;1.80;;
17620;SDS011;8929;51.008;6.804;2022-07-04T11:50:35;3.63;;;1.50;;
17620;SDS011;8929;51.008;6.804;2022-07-04T11:53:01;2.40;;;1.30;;
17620;SDS011;8929;51.008;6.804;2022-07-04T11:55:29;5.20;;;1.73;;
17620;SDS011;8929;51.008;6.804;2022-07-04T11:57:55;2.83;;;1.40;;
17620;SDS011;8929;51.008;6.804;2022-07-04T12:00:27;3.10;;;1.30;;
17620;SDS011;8929;51.008;6.804;2022-07-04T12:02:57;3.83;;;1.87;;
17620;SDS011;8929;51.008;6.804;2022-07-04T12:05:24;3.33;;;2.10;;
17620;SDS011;8929;51.008;6.804;2022-07-04T12:07:50;5.03;;;2.07;;
17620;SDS011;8929;51.008;6.804;2022-07-04T12:10:16;5.27;;;1.63;;
17620;SDS011;8929;51.008;6.804;2022-07-04T12:15:24;3.03;;;1.50;;
17620;SDS011;8929;51.008;6.804;2022-07-04T12:18:00;3.23;;;1.50;;
17620;SDS011;8929;51.008;6.804;2022-07-04T12:20:26;3.47;;;1.20;;
17620;SDS011;8929;51.008;6.804;2022-07-04T12:22:52;3.40;;;1.63;;
17620;SDS011;8929;51.008;6.804;2022-07-04T12:25:22;5.40;;;1.20;;
17620;SDS011;8929;51.008;6.804;2022-07-04T12:27:55;7.60;;;2.70;;
17620;SDS011;8929;51.008;6.804;2022-07-04T12:30:25;2.97;;;1.23;;
17620;SDS011;8929;51.008;6.804;2022-07-04T12:32:57;4.43;;;1.23;;
17620;SDS011;8929;51.008;6.804;2022-07-04T12:46:06;3.90;;;1.57;;
17620;SDS011;8929;51.008;6.804;2022-07-04T12:48:33;2.80;;;1.70;;
17620;SDS011;8929;51.008;6.804;2022-07-04T12:51:10;3.40;;;1.53;;
17620;SDS011;8929;51.008;6.804;2022-07-04T12:53:48;5.40;;;1.43;;
17620;SDS011;8929;51.008;6.804;2022-07-04T12:56:27;4.30;;;1.43;;
17620;SDS011;8929;51.008;6.804;2022-07-04T12:58:56;4.33;;;1.47;;
17620;SDS011;8929;51.008;6.804;2022-07-04T13:01:43;4.20;;;1.23;;
17620;SDS011;8929;51.008;6.804;2022-07-04T13:04:10;3.27;;;1.87;;
17620;SDS011;8929;51.008;6.804;2022-07-04T13:06:36;3.53;;;1.70;;
17620;SDS011;8929;51.008;6.804;2022-07-04T13:09:03;2.87;;;1.20;;
17620;SDS011;8929;51.008;6.804;2022-07-04T13:11:32;2.57;;;1.10;;
17620;SDS011;8929;51.008;6.804;2022-07-04T13:14:17;2.20;;;1.20;;
17620;SDS011;8929;51.008;6.804;2022-07-04T13:16:43;2.47;;;1.30;;
17620;SDS011;8929;51.008;6.804;2022-07-04T13:19:09;2.40;;;1.30;;
17620;SDS011;8929;51.008;6.804;2022-07-04T13:21:35;2.70;;;1.20;;
17620;SDS011;8929;51.008;6.804;2022-07-04T13:24:01;3.80;;;1.40;;
17620;SDS011;8929;51.008;6.804;2022-07-04T13:26:26;2.07;;;0.97;;
17620;SDS011;8929;51.008;6.804;2022-07-04T13:28:55;2.83;;;1.27;;
17620;SDS011;8929;51.008;6.804;2022-07-04T13:31:20;2.30;;;1.27;;
17620;SDS011;8929;51.008;6.804;2022-07-04T13:33:46;4.47;;;1.40;;
17620;SDS011;8929;51.008;6.804;2022-07-04T13:36:11;3.33;;;1.30;;
17620;SDS011;8929;51.008;6.804;2022-07-04T13:38:39;2.43;;;1.13;;
17620;SDS011;8929;51.008;6.804;2022-07-04T13:41:05;2.50;;;1.30;;
17620;SDS011;8929;51.008;6.804;2022-07-04T13:43:31;2.77;;;1.30;;
17620;SDS011;8929;51.008;6.804;2022-07-04T13:45:56;3.13;;;1.20;;
17620;SDS011;8929;51.008;6.804;2022-07-04T13:48:22;3.57;;;1.40;;
17620;SDS011;8929;51.008;6.804;2022-07-04T13:50:49;4.93;;;1.67;;
17620;SDS011;8929;51.008;6.804;2022-07-04T13:53:15;2.60;;;1.23;;
17620;SDS011;8929;51.008;6.804;2022-07-04T13:55:40;3.23;;;1.90;;
17620;SDS011;8929;51.008;6.804;2022-07-04T13:58:07;8.30;;;2.70;;
17620;SDS011;8929;51.008;6.804;2022-07-04T14:00:33;2.80;;;1.20;;
17620;SDS011;8929;51.008;6.804;2022-07-04T14:03:00;3.00;;;1.33;;
17620;SDS011;8929;51.008;6.804;2022-07-04T14:05:26;3.90;;;1.37;;
17620;SDS011;8929;51.008;6.804;2022-07-04T14:07:53;4.50;;;1.37;;
17620;SDS011;8929;51.008;6.804;2022-07-04T14:10:18;3.07;;;1.20;;
17620;SDS011;8929;51.008;6.804;2022-07-04T14:12:44;4.50;;;1.30;;
17620;SDS011;8929;51.008;6.804;2022-07-04T14:15:10;2.93;;;1.30;;
17620;SDS011;8929;51.008;6.804;2022-07-04T14:17:36;4.00;;;1.10;;
17620;SDS011;8929;51.008;6.804;2022-07-04T14:20:05;2.77;;;1.20;;
17620;SDS011;8929;51.008;6.804;2022-07-04T14:22:33;3.30;;;1.33;;
17620;SDS011;8929;51.008;6.804;2022-07-04T14:24:59;2.60;;;1.10;;
17620;SDS011;8929;51.008;6.804;2022-07-04T14:27:25;3.27;;;1.17;;
17620;SDS011;8929;51.008;6.804;2022-07-04T14:29:50;2.90;;;1.40;;
17620;SDS011;8929;51.008;6.804;2022-07-04T14:32:16;3.73;;;1.10;;
17620;SDS011;8929;51.008;6.804;2022-07-04T14:34:42;5.73;;;1.90;;
17620;SDS011;8929;51.008;6.804;2022-07-04T14:37:07;2.10;;;1.10;;
17620;SDS011;8929;51.008;6.804;2022-07-04T14:39:33;6.13;;;2.40;;
17620;SDS011;8929;51.008;6.804;2022-07-04T14:41:59;2.30;;;1.10;;
17620;SDS011;8929;51.008;6.804;2022-07-04T14:44:24;2.47;;;1.10;;
17620;SDS011;8929;51.008;6.804;2022-07-04T14:46:50;2.33;;;1.20;;
17620;SDS011;8929;51.008;6.804;2022-07-04T14:49:16;2.80;;;1.23;;
17620;SDS011;8929;51.008;6.804;2022-07-04T14:51:41;2.57;;;1.07;;
17620;SDS011;8929;51.008;6.804;2022-07-04T14:54:08;3.27;;;1.37;;
17620;SDS011;8929;51.008;6.804;2022-07-04T14:56:34;2.40;;;1.00;;
17620;SDS011;8929;51.008;6.804;2022-07-04T14:59:00;2.33;;;1.17;;
17620;SDS011;8929;51.008;6.804;2022-07-04T15:01:26;2.97;;;1.30;;
17620;SDS011;8929;51.008;6.804;2022-07-04T15:03:52;3.20;;;1.10;;
17620;SDS011;8929;51.008;6.804;2022-07-04T15:06:18;4.20;;;1.50;;
17620;SDS011;8929;51.008;6.804;2022-07-04T15:08:44;4.20;;;1.60;;
17620;SDS011;8929;51.008;6.804;2022-07-04T15:11:10;2.53;;;1.40;;
17620;SDS011;8929;51.008;6.804;2022-07-04T15:13:35;2.33;;;1.27;;
17620;SDS011;8929;51.008;6.804;2022-07-04T15:16:01;2.80;;;1.20;;
17620;SDS011;8929;51.008;6.804;2022-07-04T15:18:26;2.70;;;1.30;;
17620;SDS011;8929;51.008;6.804;2022-07-04T15:20:52;3.20;;;1.30;;
17620;SDS011;8929;51.008;6.804;2022-07-04T15:23:36;2.87;;;1.40;;
17620;SDS011;8929;51.008;6.804;2022-07-04T15:26:20;2.80;;;1.20;;
17620;SDS011;8929;51.008;6.804;2022-07-04T15:28:46;3.77;;;1.57;;
17620;SDS011;8929;51.008;6.804;2022-07-04T15:31:11;5.27;;;1.90;;
17620;SDS011;8929;51.008;6.804;2022-07-04T15:33:37;2.67;;;1.20;;
17620;SDS011;8929;51.008;6.804;2022-07-04T15:38:31;2.80;;;1.30;;
17620;SDS011;8929;51.008;6.804;2022-07-04T15:40:57;2.10;;;0.97;;
17620;SDS011;8929;51.008;6.804;2022-07-04T15:43:27;4.40;;;1.20;;